sensor_id;sensor_type;location;lat;lon;timestamp;P1;durP1;ratioP1;P2;durP2;ratioP2
9447;SDS011;4762;48.128;11.376;2022-08-19T00:00:52;4.20;;;2.90;;
9447;SDS011;4762;48.128;11.376;2022-08-19T00:16:00;3.20;;;2.50;;
9447;SDS011;4762;48.128;11.376;2022-08-19T00:18:03;3.60;;;2.33;;
9447;SDS011;4762;48.128;11.376;2022-08-19T00:20:05;2.30;;;2.07;;
9447;SDS011;4762;48.128;11.376;2022-08-19T00:22:08;2.03;;;1.83;;
9447;SDS011;4762;48.128;11.376;2022-08-19T00:24:13;3.80;;;2.47;;
9447;SDS011;4762;48.128;11.376;2022-08-19T00:26:14;2.70;;;2.50;;
9447;SDS011;4762;48.128;11.376;2022-08-19T00:28:19;2.33;;;2.13;;
9447;SDS011;4762;48.128;11.376;2022-08-19T00:30:24;2.63;;;2.43;;
9447;SDS011;4762;48.128;11.376;2022-08-19T00:32:30;2.43;;;2.20;;
9447;SDS011;4762;48.128;11.376;2022-08-19T00:34:33;4.10;;;2.53;;
9447;SDS011;4762;48.128;11.376;2022-08-19T00:36:36;2.10;;;1.93;;
9447;SDS011;4762;48.128;11.376;2022-08-19T00:38:38;2.47;;;2.27;;
9447;SDS011;4762;48.128;11.376;2022-08-19T00:40:45;3.23;;;2.70;;
9447;SDS011;4762;48.128;11.376;2022-08-19T00:42:48;4.27;;;2.70;;
9447;SDS011;4762;48.128;11.376;2022-08-19T00:44:50;2.20;;;1.83;;
9447;SDS011;4762;48.128;11.376;2022-08-19T00:46:54;2.50;;;2.03;;
9447;SDS011;4762;48.128;11.376;2022-08-19T00:48:56;4.67;;;2.93;;
9447;SDS011;4762;48.128;11.376;2022-08-19T00:50:58;4.27;;;3.13;;
9447;SDS011;4762;48.128;11.376;2022-08-19T00:53:01;2.60;;;2.40;;
9447;SDS011;4762;48.128;11.376;2022-08-19T00:55:04;4.77;;;3.30;;
9447;SDS011;4762;48.128;11.376;2022-08-19T00:57:12;2.63;;;2.43;;
9447;SDS011;4762;48.128;11.376;2022-08-19T00:59:14;3.37;;;3.07;;
9447;SDS011;4762;48.128;11.376;2022-08-19T01:01:16;4.30;;;3.13;;
9447;SDS011;4762;48.128;11.376;2022-08-19T01:03:19;3.83;;;2.93;;
9447;SDS011;4762;48.128;11.376;2022-08-19T01:05:23;3.00;;;2.80;;
9447;SDS011;4762;48.128;11.376;2022-08-19T01:07:24;3.27;;;3.00;;
9447;SDS011;4762;48.128;11.376;2022-08-19T01:11:45;3.50;;;3.10;;
9447;SDS011;4762;48.128;11.376;2022-08-19T01:13:51;4.63;;;2.80;;
9447;SDS011;4762;48.128;11.376;2022-08-19T01:15:56;4.80;;;2.93;;
9447;SDS011;4762;48.128;11.376;2022-08-19T01:17:59;2.90;;;2.60;;
9447;SDS011;4762;48.128;11.376;2022-08-19T01:20:03;3.43;;;2.47;;
9447;SDS011;4762;48.128;11.376;2022-08-19T01:22:12;3.37;;;3.00;;
9447;SDS011;4762;48.128;11.376;2022-08-19T01:24:26;3.50;;;3.30;;
9447;SDS011;4762;48.128;11.376;2022-08-19T01:26:37;3.07;;;2.67;;
9447;SDS011;4762;48.128;11.376;2022-08-19T01:28:47;3.20;;;2.53;;
9447;SDS011;4762;48.128;11.376;2022-08-19T01:48:13;4.80;;;2.67;;
9447;SDS011;4762;48.128;11.376;2022-08-19T01:50:17;3.93;;;2.97;;
9447;SDS011;4762;48.128;11.376;2022-08-19T01:52:20;2.27;;;2.07;;
9447;SDS011;4762;48.128;11.376;2022-08-19T01:54:23;3.63;;;2.63;;
9447;SDS011;4762;48.128;11.376;2022-08-19T01:56:28;2.23;;;2.03;;
9447;SDS011;4762;48.128;11.376;2022-08-19T01:58:35;4.17;;;3.37;;
9447;SDS011;4762;48.128;11.376;2022-08-19T02:00:35;2.90;;;2.50;;
9447;SDS011;4762;48.128;11.376;2022-08-19T02:02:38;4.93;;;1.80;;
9447;SDS011;4762;48.128;11.376;2022-08-19T02:04:40;12.30;;;2.00;;
9447;SDS011;4762;48.128;11.376;2022-08-19T02:06:44;4.93;;;2.77;;
9447;SDS011;4762;48.128;11.376;2022-08-19T02:08:47;3.80;;;3.50;;
9447;SDS011;4762;48.128;11.376;2022-08-19T02:10:49;1.90;;;1.80;;
9447;SDS011;4762;48.128;11.376;2022-08-19T02:12:53;2.70;;;2.30;;
9447;SDS011;4762;48.128;11.376;2022-08-19T02:14:55;3.27;;;2.80;;
9447;SDS011;4762;48.128;11.376;2022-08-19T02:17:00;4.97;;;3.03;;
9447;SDS011;4762;48.128;11.376;2022-08-19T02:19:02;3.47;;;2.73;;
9447;SDS011;4762;48.128;11.376;2022-08-19T02:21:08;3.07;;;2.40;;
9447;SDS011;4762;48.128;11.376;2022-08-19T02:23:11;4.00;;;1.90;;
9447;SDS011;4762;48.128;11.376;2022-08-19T02:25:13;3.03;;;2.30;;
9447;SDS011;4762;48.128;11.376;2022-08-19T02:27:16;3.97;;;2.10;;
9447;SDS011;4762;48.128;11.376;2022-08-19T02:29:19;3.87;;;2.20;;
9447;SDS011;4762;48.128;11.376;2022-08-19T02:31:22;2.80;;;2.10;;
9447;SDS011;4762;48.128;11.376;2022-08-19T02:33:23;3.67;;;2.43;;
9447;SDS011;4762;48.128;11.376;2022-08-19T02:35:26;1.70;;;1.50;;
9447;SDS011;4762;48.128;11.376;2022-08-19T02:37:28;4.33;;;2.90;;
9447;SDS011;4762;48.128;11.376;2022-08-19T02:39:37;1.60;;;1.50;;
9447;SDS011;4762;48.128;11.376;2022-08-19T02:41:39;1.97;;;1.73;;
9447;SDS011;4762;48.128;11.376;2022-08-19T02:43:42;2.93;;;2.00;;
9447;SDS011;4762;48.128;11.376;2022-08-19T02:45:45;2.27;;;2.07;;
9447;SDS011;4762;48.128;11.376;2022-08-19T02:47:47;2.00;;;1.80;;
9447;SDS011;4762;48.128;11.376;2022-08-19T02:49:50;2.90;;;2.10;;
9447;SDS011;4762;48.128;11.376;2022-08-19T02:51:52;3.17;;;2.33;;
9447;SDS011;4762;48.128;11.376;2022-08-19T02:53:56;1.83;;;1.63;;
9447;SDS011;4762;48.128;11.376;2022-08-19T02:55:58;1.97;;;1.60;;
9447;SDS011;4762;48.128;11.376;2022-08-19T02:58:00;1.87;;;1.43;;
9447;SDS011;4762;48.128;11.376;2022-08-19T03:00:04;1.97;;;1.10;;
9447;SDS011;4762;48.128;11.376;2022-08-19T03:02:09;2.40;;;1.93;;
9447;SDS011;4762;48.128;11.376;2022-08-19T03:04:12;4.10;;;1.63;;
9447;SDS011;4762;48.128;11.376;2022-08-19T03:06:15;3.63;;;2.33;;
9447;SDS011;4762;48.128;11.376;2022-08-19T03:08:18;2.23;;;2.03;;
9447;SDS011;4762;48.128;11.376;2022-08-19T03:10:20;2.00;;;1.83;;
9447;SDS011;4762;48.128;11.376;2022-08-19T03:12:23;2.33;;;1.80;;
9447;SDS011;4762;48.128;11.376;2022-08-19T03:14:25;1.57;;;1.47;;
9447;SDS011;4762;48.128;11.376;2022-08-19T03:16:31;2.73;;;1.70;;
9447;SDS011;4762;48.128;11.376;2022-08-19T03:18:43;2.20;;;2.00;;
9447;SDS011;4762;48.128;11.376;2022-08-19T03:20:47;2.70;;;1.83;;
9447;SDS011;4762;48.128;11.376;2022-08-19T03:22:49;2.60;;;2.30;;
9447;SDS011;4762;48.128;11.376;2022-08-19T03:24:53;3.63;;;2.47;;
9447;SDS011;4762;48.128;11.376;2022-08-19T03:26:55;3.10;;;2.20;;
9447;SDS011;4762;48.128;11.376;2022-08-19T03:29:02;3.10;;;1.90;;
9447;SDS011;4762;48.128;11.376;2022-08-19T03:31:06;2.00;;;1.50;;
9447;SDS011;4762;48.128;11.376;2022-08-19T03:33:09;2.07;;;1.87;;
9447;SDS011;4762;48.128;11.376;2022-08-19T03:35:10;2.37;;;2.17;;
9447;SDS011;4762;48.128;11.376;2022-08-19T03:37:16;3.77;;;1.47;;
9447;SDS011;4762;48.128;11.376;2022-08-19T03:39:19;4.30;;;3.17;;
9447;SDS011;4762;48.128;11.376;2022-08-19T03:41:23;3.10;;;2.60;;
9447;SDS011;4762;48.128;11.376;2022-08-19T03:43:26;2.90;;;1.90;;
9447;SDS011;4762;48.128;11.376;2022-08-19T03:45:33;2.40;;;2.07;;
9447;SDS011;4762;48.128;11.376;2022-08-19T03:47:44;2.10;;;1.77;;
9447;SDS011;4762;48.128;11.376;2022-08-19T03:49:47;1.53;;;1.20;;
9447;SDS011;4762;48.128;11.376;2022-08-19T03:51:50;3.70;;;2.40;;
9447;SDS011;4762;48.128;11.376;2022-08-19T03:53:54;3.33;;;2.33;;
9447;SDS011;4762;48.128;11.376;2022-08-19T03:55:56;5.30;;;3.27;;
9447;SDS011;4762;48.128;11.376;2022-08-19T03:57:59;2.97;;;2.67;;
9447;SDS011;4762;48.128;11.376;2022-08-19T04:00:03;2.33;;;2.13;;
9447;SDS011;4762;48.128;11.376;2022-08-19T04:02:10;2.67;;;2.47;;
9447;SDS011;4762;48.128;11.376;2022-08-19T04:04:11;2.40;;;2.20;;
9447;SDS011;4762;48.128;11.376;2022-08-19T04:06:17;3.90;;;2.10;;
9447;SDS011;4762;48.128;11.376;2022-08-19T04:11:05;2.80;;;2.33;;
9447;SDS011;4762;48.128;11.376;2022-08-19T04:13:05;2.13;;;1.63;;
9447;SDS011;4762;48.128;11.376;2022-08-19T04:15:10;5.00;;;2.67;;
9447;SDS011;4762;48.128;11.376;2022-08-19T04:17:12;5.30;;;3.40;;
9447;SDS011;4762;48.128;11.376;2022-08-19T04:19:16;4.00;;;2.80;;
9447;SDS011;4762;48.128;11.376;2022-08-19T04:21:19;3.00;;;2.30;;
9447;SDS011;4762;48.128;11.376;2022-08-19T04:37:53;2.47;;;2.20;;
9447;SDS011;4762;48.128;11.376;2022-08-19T04:39:56;3.70;;;3.40;;
9447;SDS011;4762;48.128;11.376;2022-08-19T04:42:05;14.50;;;4.00;;
9447;SDS011;4762;48.128;11.376;2022-08-19T04:44:13;3.27;;;2.63;;
9447;SDS011;4762;48.128;11.376;2022-08-19T04:46:15;3.33;;;3.00;;
9447;SDS011;4762;48.128;11.376;2022-08-19T04:48:19;2.50;;;2.30;;
9447;SDS011;4762;48.128;11.376;2022-08-19T04:50:22;2.90;;;2.23;;
9447;SDS011;4762;48.128;11.376;2022-08-19T04:52:26;2.10;;;1.77;;
9447;SDS011;4762;48.128;11.376;2022-08-19T04:54:30;3.20;;;2.17;;
9447;SDS011;4762;48.128;11.376;2022-08-19T04:56:32;3.70;;;2.90;;
9447;SDS011;4762;48.128;11.376;2022-08-19T04:58:35;4.40;;;2.80;;
9447;SDS011;4762;48.128;11.376;2022-08-19T05:00:38;2.90;;;2.50;;
9447;SDS011;4762;48.128;11.376;2022-08-19T05:02:40;2.33;;;2.13;;
9447;SDS011;4762;48.128;11.376;2022-08-19T05:04:43;3.40;;;2.30;;
9447;SDS011;4762;48.128;11.376;2022-08-19T05:06:48;1.90;;;1.43;;
9447;SDS011;4762;48.128;11.376;2022-08-19T05:08:49;2.77;;;2.10;;
9447;SDS011;4762;48.128;11.376;2022-08-19T05:10:52;2.70;;;2.50;;
9447;SDS011;4762;48.128;11.376;2022-08-19T05:12:54;3.30;;;2.77;;
9447;SDS011;4762;48.128;11.376;2022-08-19T05:14:57;3.03;;;2.60;;
9447;SDS011;4762;48.128;11.376;2022-08-19T05:17:00;3.50;;;3.23;;
9447;SDS011;4762;48.128;11.376;2022-08-19T05:19:04;2.20;;;2.03;;
9447;SDS011;4762;48.128;11.376;2022-08-19T05:21:22;4.37;;;3.47;;
9447;SDS011;4762;48.128;11.376;2022-08-19T05:23:30;2.50;;;2.30;;
9447;SDS011;4762;48.128;11.376;2022-08-19T05:25:32;2.50;;;2.30;;
9447;SDS011;4762;48.128;11.376;2022-08-19T05:27:35;2.63;;;2.40;;
9447;SDS011;4762;48.128;11.376;2022-08-19T05:29:38;3.43;;;3.13;;
9447;SDS011;4762;48.128;11.376;2022-08-19T05:31:43;4.40;;;3.33;;
9447;SDS011;4762;48.128;11.376;2022-08-19T05:33:49;2.47;;;2.27;;
9447;SDS011;4762;48.128;11.376;2022-08-19T05:35:53;3.33;;;2.00;;
9447;SDS011;4762;48.128;11.376;2022-08-19T05:37:59;3.57;;;2.73;;
9447;SDS011;4762;48.128;11.376;2022-08-19T05:40:02;2.53;;;2.33;;
9447;SDS011;4762;48.128;11.376;2022-08-19T05:42:07;3.47;;;3.17;;
9447;SDS011;4762;48.128;11.376;2022-08-19T05:44:09;3.63;;;2.77;;
9447;SDS011;4762;48.128;11.376;2022-08-19T05:46:17;3.43;;;2.87;;
9447;SDS011;4762;48.128;11.376;2022-08-19T05:48:19;3.00;;;2.77;;
9447;SDS011;4762;48.128;11.376;2022-08-19T05:50:21;6.40;;;4.90;;
9447;SDS011;4762;48.128;11.376;2022-08-19T05:52:25;6.40;;;3.73;;
9447;SDS011;4762;48.128;11.376;2022-08-19T05:54:27;3.10;;;2.90;;
9447;SDS011;4762;48.128;11.376;2022-08-19T05:56:30;3.80;;;3.50;;
9447;SDS011;4762;48.128;11.376;2022-08-19T06:15:56;4.43;;;3.00;;
9447;SDS011;4762;48.128;11.376;2022-08-19T06:17:58;4.03;;;2.60;;
9447;SDS011;4762;48.128;11.376;2022-08-19T06:20:05;2.90;;;2.70;;
9447;SDS011;4762;48.128;11.376;2022-08-19T06:22:08;2.40;;;2.20;;
9447;SDS011;4762;48.128;11.376;2022-08-19T06:24:12;2.50;;;2.30;;
9447;SDS011;4762;48.128;11.376;2022-08-19T06:26:14;4.00;;;2.57;;
9447;SDS011;4762;48.128;11.376;2022-08-19T06:28:16;5.50;;;2.60;;
9447;SDS011;4762;48.128;11.376;2022-08-19T06:30:18;4.00;;;3.57;;
9447;SDS011;4762;48.128;11.376;2022-08-19T06:32:20;6.00;;;3.40;;
9447;SDS011;4762;48.128;11.376;2022-08-19T06:34:23;4.67;;;3.90;;
9447;SDS011;4762;48.128;11.376;2022-08-19T06:36:30;4.90;;;3.00;;
9447;SDS011;4762;48.128;11.376;2022-08-19T06:38:31;6.90;;;4.03;;
9447;SDS011;4762;48.128;11.376;2022-08-19T06:40:34;5.23;;;3.13;;
9447;SDS011;4762;48.128;11.376;2022-08-19T06:42:37;3.73;;;3.23;;
9447;SDS011;4762;48.128;11.376;2022-08-19T06:44:40;8.63;;;3.60;;
9447;SDS011;4762;48.128;11.376;2022-08-19T06:46:42;3.50;;;3.20;;
9447;SDS011;4762;48.128;11.376;2022-08-19T06:48:45;4.57;;;3.40;;
9447;SDS011;4762;48.128;11.376;2022-08-19T06:50:47;4.23;;;3.60;;
9447;SDS011;4762;48.128;11.376;2022-08-19T06:52:50;6.60;;;3.90;;
9447;SDS011;4762;48.128;11.376;2022-08-19T06:54:53;5.70;;;4.57;;
9447;SDS011;4762;48.128;11.376;2022-08-19T06:56:57;3.57;;;3.27;;
9447;SDS011;4762;48.128;11.376;2022-08-19T06:58:59;6.60;;;3.90;;
9447;SDS011;4762;48.128;11.376;2022-08-19T07:01:04;8.37;;;3.83;;
9447;SDS011;4762;48.128;11.376;2022-08-19T07:03:07;3.50;;;3.20;;
9447;SDS011;4762;48.128;11.376;2022-08-19T07:05:10;4.30;;;3.60;;
9447;SDS011;4762;48.128;11.376;2022-08-19T07:07:13;4.93;;;3.73;;
9447;SDS011;4762;48.128;11.376;2022-08-19T07:09:16;4.50;;;4.10;;
9447;SDS011;4762;48.128;11.376;2022-08-19T07:11:17;3.57;;;3.27;;
9447;SDS011;4762;48.128;11.376;2022-08-19T07:13:19;4.27;;;3.23;;
9447;SDS011;4762;48.128;11.376;2022-08-19T07:15:22;4.63;;;3.80;;
9447;SDS011;4762;48.128;11.376;2022-08-19T07:17:25;8.43;;;5.50;;
9447;SDS011;4762;48.128;11.376;2022-08-19T07:19:31;6.63;;;5.30;;
9447;SDS011;4762;48.128;11.376;2022-08-19T07:21:37;7.93;;;5.50;;
9447;SDS011;4762;48.128;11.376;2022-08-19T07:23:44;6.40;;;5.73;;
9447;SDS011;4762;48.128;11.376;2022-08-19T07:25:46;8.73;;;5.97;;
9447;SDS011;4762;48.128;11.376;2022-08-19T07:27:49;5.67;;;4.70;;
9447;SDS011;4762;48.128;11.376;2022-08-19T07:29:52;8.17;;;5.97;;
9447;SDS011;4762;48.128;11.376;2022-08-19T07:31:55;6.73;;;5.10;;
9447;SDS011;4762;48.128;11.376;2022-08-19T07:34:00;5.90;;;5.30;;
9447;SDS011;4762;48.128;11.376;2022-08-19T07:36:04;7.27;;;5.83;;
9447;SDS011;4762;48.128;11.376;2022-08-19T07:38:07;5.00;;;4.53;;
9447;SDS011;4762;48.128;11.376;2022-08-19T07:40:09;6.67;;;5.80;;
9447;SDS011;4762;48.128;11.376;2022-08-19T07:42:12;6.53;;;5.60;;
9447;SDS011;4762;48.128;11.376;2022-08-19T07:44:16;5.60;;;5.10;;
9447;SDS011;4762;48.128;11.376;2022-08-19T07:46:19;9.93;;;6.50;;
9447;SDS011;4762;48.128;11.376;2022-08-19T07:48:25;7.43;;;5.73;;
9447;SDS011;4762;48.128;11.376;2022-08-19T07:50:26;6.40;;;5.57;;
9447;SDS011;4762;48.128;11.376;2022-08-19T07:52:29;7.53;;;6.20;;
9447;SDS011;4762;48.128;11.376;2022-08-19T07:54:34;5.43;;;4.87;;
9447;SDS011;4762;48.128;11.376;2022-08-19T07:56:34;16.63;;;6.67;;
9447;SDS011;4762;48.128;11.376;2022-08-19T07:58:37;6.97;;;5.70;;
9447;SDS011;4762;48.128;11.376;2022-08-19T08:00:39;9.43;;;6.13;;
9447;SDS011;4762;48.128;11.376;2022-08-19T08:02:44;6.57;;;4.80;;
9447;SDS011;4762;48.128;11.376;2022-08-19T08:04:46;7.10;;;5.30;;
9447;SDS011;4762;48.128;11.376;2022-08-19T08:06:56;5.87;;;5.03;;
9447;SDS011;4762;48.128;11.376;2022-08-19T08:09:05;5.53;;;4.80;;
9447;SDS011;4762;48.128;11.376;2022-08-19T08:11:16;5.40;;;4.90;;
9447;SDS011;4762;48.128;11.376;2022-08-19T08:13:18;5.70;;;4.60;;
9447;SDS011;4762;48.128;11.376;2022-08-19T08:15:21;7.40;;;4.43;;
9447;SDS011;4762;48.128;11.376;2022-08-19T08:34:42;9.63;;;4.53;;
9447;SDS011;4762;48.128;11.376;2022-08-19T08:36:44;6.93;;;5.80;;
9447;SDS011;4762;48.128;11.376;2022-08-19T08:38:46;10.10;;;6.43;;
9447;SDS011;4762;48.128;11.376;2022-08-19T08:40:50;9.90;;;5.80;;
9447;SDS011;4762;48.128;11.376;2022-08-19T08:43:00;8.73;;;6.40;;
9447;SDS011;4762;48.128;11.376;2022-08-19T08:45:12;6.83;;;5.90;;
9447;SDS011;4762;48.128;11.376;2022-08-19T08:47:13;6.73;;;5.70;;
9447;SDS011;4762;48.128;11.376;2022-08-19T08:49:32;10.70;;;7.03;;
9447;SDS011;4762;48.128;11.376;2022-08-19T08:51:46;7.40;;;6.20;;
9447;SDS011;4762;48.128;11.376;2022-08-19T08:53:50;6.47;;;5.30;;
9447;SDS011;4762;48.128;11.376;2022-08-19T08:55:53;9.97;;;7.30;;
9447;SDS011;4762;48.128;11.376;2022-08-19T08:58:00;5.83;;;5.23;;
9447;SDS011;4762;48.128;11.376;2022-08-19T09:00:02;13.10;;;7.73;;
9447;SDS011;4762;48.128;11.376;2022-08-19T09:02:04;7.83;;;6.80;;
9447;SDS011;4762;48.128;11.376;2022-08-19T09:04:06;8.20;;;5.57;;
9447;SDS011;4762;48.128;11.376;2022-08-19T09:06:14;5.80;;;5.10;;
9447;SDS011;4762;48.128;11.376;2022-08-19T09:08:25;6.03;;;5.10;;
9447;SDS011;4762;48.128;11.376;2022-08-19T09:12:47;8.40;;;4.33;;
9447;SDS011;4762;48.128;11.376;2022-08-19T09:14:49;7.50;;;5.43;;
9447;SDS011;4762;48.128;11.376;2022-08-19T09:16:50;5.97;;;5.37;;
9447;SDS011;4762;48.128;11.376;2022-08-19T09:18:55;6.67;;;5.97;;
9447;SDS011;4762;48.128;11.376;2022-08-19T09:20:56;9.60;;;5.70;;
9447;SDS011;4762;48.128;11.376;2022-08-19T09:23:00;13.20;;;4.40;;
9447;SDS011;4762;48.128;11.376;2022-08-19T09:25:13;4.53;;;4.13;;
9447;SDS011;4762;48.128;11.376;2022-08-19T09:27:15;9.43;;;4.10;;
9447;SDS011;4762;48.128;11.376;2022-08-19T09:29:18;5.13;;;4.63;;
9447;SDS011;4762;48.128;11.376;2022-08-19T09:31:22;7.00;;;5.97;;
9447;SDS011;4762;48.128;11.376;2022-08-19T09:33:23;8.40;;;5.97;;
9447;SDS011;4762;48.128;11.376;2022-08-19T09:35:27;10.53;;;6.20;;
9447;SDS011;4762;48.128;11.376;2022-08-19T09:37:29;10.70;;;6.07;;
9447;SDS011;4762;48.128;11.376;2022-08-19T09:39:32;7.70;;;5.07;;
9447;SDS011;4762;48.128;11.376;2022-08-19T09:41:36;7.87;;;6.43;;
9447;SDS011;4762;48.128;11.376;2022-08-19T09:43:49;6.10;;;5.30;;
9447;SDS011;4762;48.128;11.376;2022-08-19T09:45:54;8.37;;;6.50;;
9447;SDS011;4762;48.128;11.376;2022-08-19T09:48:01;7.53;;;5.23;;
9447;SDS011;4762;48.128;11.376;2022-08-19T09:50:05;10.17;;;6.03;;
9447;SDS011;4762;48.128;11.376;2022-08-19T09:52:09;9.67;;;7.13;;
9447;SDS011;4762;48.128;11.376;2022-08-19T09:54:16;11.30;;;6.57;;
9447;SDS011;4762;48.128;11.376;2022-08-19T09:56:19;6.67;;;5.97;;
9447;SDS011;4762;48.128;11.376;2022-08-19T09:58:24;8.70;;;6.87;;
9447;SDS011;4762;48.128;11.376;2022-08-19T10:00:28;7.67;;;5.63;;
9447;SDS011;4762;48.128;11.376;2022-08-19T10:02:39;6.20;;;5.60;;
9447;SDS011;4762;48.128;11.376;2022-08-19T10:04:45;9.37;;;7.17;;
9447;SDS011;4762;48.128;11.376;2022-08-19T10:06:55;7.23;;;6.10;;
9447;SDS011;4762;48.128;11.376;2022-08-19T10:08:56;8.20;;;6.50;;
9447;SDS011;4762;48.128;11.376;2022-08-19T10:13:43;8.90;;;5.80;;
9447;SDS011;4762;48.128;11.376;2022-08-19T11:17:48;3.30;;;2.87;;
9447;SDS011;4762;48.128;11.376;2022-08-19T11:37:38;1.40;;;1.10;;
9447;SDS011;4762;48.128;11.376;2022-08-19T11:39:52;1.30;;;1.17;;
9447;SDS011;4762;48.128;11.376;2022-08-19T11:42:19;2.10;;;2.00;;
9447;SDS011;4762;48.128;11.376;2022-08-19T12:01:50;1.17;;;0.77;;
9447;SDS011;4762;48.128;11.376;2022-08-19T12:03:54;1.23;;;1.13;;
9447;SDS011;4762;48.128;11.376;2022-08-19T12:05:56;1.23;;;0.80;;
9447;SDS011;4762;48.128;11.376;2022-08-19T12:08:00;1.40;;;0.90;;
9447;SDS011;4762;48.128;11.376;2022-08-19T12:10:05;1.30;;;0.70;;
9447;SDS011;4762;48.128;11.376;2022-08-19T12:12:09;1.03;;;0.80;;
9447;SDS011;4762;48.128;11.376;2022-08-19T12:14:12;1.20;;;0.90;;
9447;SDS011;4762;48.128;11.376;2022-08-19T12:16:15;1.00;;;0.67;;
9447;SDS011;4762;48.128;11.376;2022-08-19T12:18:20;2.00;;;1.07;;
9447;SDS011;4762;48.128;11.376;2022-08-19T12:20:24;1.00;;;0.80;;
9447;SDS011;4762;48.128;11.376;2022-08-19T12:22:27;1.60;;;1.20;;
9447;SDS011;4762;48.128;11.376;2022-08-19T12:24:31;1.10;;;0.77;;
9447;SDS011;4762;48.128;11.376;2022-08-19T12:26:33;1.60;;;1.20;;
9447;SDS011;4762;48.128;11.376;2022-08-19T12:28:37;1.07;;;0.60;;
9447;SDS011;4762;48.128;11.376;2022-08-19T12:32:49;1.13;;;0.87;;
9447;SDS011;4762;48.128;11.376;2022-08-19T12:34:52;1.00;;;0.70;;
9447;SDS011;4762;48.128;11.376;2022-08-19T12:36:54;1.27;;;0.90;;
9447;SDS011;4762;48.128;11.376;2022-08-19T12:38:58;2.20;;;0.90;;
9447;SDS011;4762;48.128;11.376;2022-08-19T12:41:00;1.10;;;0.90;;
9447;SDS011;4762;48.128;11.376;2022-08-19T12:43:02;1.40;;;1.10;;
9447;SDS011;4762;48.128;11.376;2022-08-19T12:45:05;1.10;;;0.80;;
9447;SDS011;4762;48.128;11.376;2022-08-19T12:47:08;1.30;;;0.80;;
9447;SDS011;4762;48.128;11.376;2022-08-19T12:49:11;2.63;;;0.83;;
9447;SDS011;4762;48.128;11.376;2022-08-19T12:51:15;3.63;;;3.33;;
9447;SDS011;4762;48.128;11.376;2022-08-19T12:53:17;16.93;;;1.20;;
9447;SDS011;4762;48.128;11.376;2022-08-19T12:55:20;1.50;;;0.90;;
9447;SDS011;4762;48.128;11.376;2022-08-19T12:57:23;1.30;;;0.97;;
9447;SDS011;4762;48.128;11.376;2022-08-19T12:59:25;1.10;;;0.80;;
9447;SDS011;4762;48.128;11.376;2022-08-19T13:01:27;1.10;;;0.80;;
9447;SDS011;4762;48.128;11.376;2022-08-19T13:03:30;1.20;;;0.80;;
9447;SDS011;4762;48.128;11.376;2022-08-19T13:05:33;1.20;;;0.70;;
9447;SDS011;4762;48.128;11.376;2022-08-19T13:07:37;1.60;;;1.03;;
9447;SDS011;4762;48.128;11.376;2022-08-19T13:09:40;2.40;;;2.30;;
9447;SDS011;4762;48.128;11.376;2022-08-19T13:11:54;1.10;;;0.90;;
9447;SDS011;4762;48.128;11.376;2022-08-19T13:13:56;1.23;;;0.77;;
9447;SDS011;4762;48.128;11.376;2022-08-19T13:16:00;1.00;;;0.67;;
9447;SDS011;4762;48.128;11.376;2022-08-19T13:18:02;1.00;;;0.80;;
9447;SDS011;4762;48.128;11.376;2022-08-19T13:20:05;1.50;;;1.10;;
9447;SDS011;4762;48.128;11.376;2022-08-19T13:22:09;1.33;;;1.10;;
9447;SDS011;4762;48.128;11.376;2022-08-19T13:24:12;1.27;;;0.90;;
9447;SDS011;4762;48.128;11.376;2022-08-19T13:26:15;1.70;;;1.30;;
9447;SDS011;4762;48.128;11.376;2022-08-19T13:28:18;1.70;;;1.60;;
9447;SDS011;4762;48.128;11.376;2022-08-19T13:30:20;1.70;;;1.10;;
9447;SDS011;4762;48.128;11.376;2022-08-19T13:32:29;1.33;;;1.23;;
9447;SDS011;4762;48.128;11.376;2022-08-19T13:34:38;1.10;;;0.77;;
9447;SDS011;4762;48.128;11.376;2022-08-19T13:36:41;1.67;;;1.13;;
9447;SDS011;4762;48.128;11.376;2022-08-19T13:38:44;1.33;;;1.03;;
9447;SDS011;4762;48.128;11.376;2022-08-19T13:40:47;1.93;;;1.43;;
9447;SDS011;4762;48.128;11.376;2022-08-19T13:42:50;1.67;;;1.23;;
9447;SDS011;4762;48.128;11.376;2022-08-19T13:44:53;2.07;;;1.23;;
9447;SDS011;4762;48.128;11.376;2022-08-19T13:46:54;2.67;;;1.43;;
9447;SDS011;4762;48.128;11.376;2022-08-19T13:48:56;1.27;;;1.10;;
9447;SDS011;4762;48.128;11.376;2022-08-19T13:50:59;1.43;;;0.90;;
9447;SDS011;4762;48.128;11.376;2022-08-19T13:53:01;1.50;;;1.00;;
9447;SDS011;4762;48.128;11.376;2022-08-19T13:55:05;1.53;;;1.00;;
9447;SDS011;4762;48.128;11.376;2022-08-19T13:57:07;2.07;;;1.20;;
9447;SDS011;4762;48.128;11.376;2022-08-19T13:59:10;1.30;;;0.97;;
9447;SDS011;4762;48.128;11.376;2022-08-19T14:01:18;1.63;;;1.07;;
9447;SDS011;4762;48.128;11.376;2022-08-19T14:03:15;1.63;;;0.87;;
9447;SDS011;4762;48.128;11.376;2022-08-19T14:05:18;1.10;;;0.83;;
9447;SDS011;4762;48.128;11.376;2022-08-19T14:07:20;1.27;;;0.93;;
9447;SDS011;4762;48.128;11.376;2022-08-19T14:09:23;1.97;;;1.13;;
9447;SDS011;4762;48.128;11.376;2022-08-19T14:11:26;1.10;;;0.70;;
9447;SDS011;4762;48.128;11.376;2022-08-19T14:13:28;2.13;;;1.10;;
9447;SDS011;4762;48.128;11.376;2022-08-19T14:15:30;1.47;;;0.83;;
9447;SDS011;4762;48.128;11.376;2022-08-19T14:17:33;1.20;;;0.90;;
9447;SDS011;4762;48.128;11.376;2022-08-19T14:19:36;1.33;;;0.87;;
9447;SDS011;4762;48.128;11.376;2022-08-19T14:21:38;1.20;;;0.80;;
9447;SDS011;4762;48.128;11.376;2022-08-19T14:23:41;1.37;;;0.80;;
9447;SDS011;4762;48.128;11.376;2022-08-19T14:25:43;1.07;;;0.80;;
9447;SDS011;4762;48.128;11.376;2022-08-19T14:27:47;1.00;;;0.60;;
9447;SDS011;4762;48.128;11.376;2022-08-19T14:29:51;1.00;;;0.67;;
9447;SDS011;4762;48.128;11.376;2022-08-19T14:31:53;1.90;;;1.33;;
9447;SDS011;4762;48.128;11.376;2022-08-19T14:33:56;1.10;;;0.80;;
9447;SDS011;4762;48.128;11.376;2022-08-19T14:35:58;1.30;;;0.90;;
9447;SDS011;4762;48.128;11.376;2022-08-19T14:38:04;1.47;;;0.90;;
9447;SDS011;4762;48.128;11.376;2022-08-19T14:40:06;1.20;;;0.90;;
9447;SDS011;4762;48.128;11.376;2022-08-19T14:42:09;1.20;;;1.10;;
9447;SDS011;4762;48.128;11.376;2022-08-19T14:44:12;1.20;;;1.10;;
9447;SDS011;4762;48.128;11.376;2022-08-19T14:46:16;1.10;;;0.90;;
9447;SDS011;4762;48.128;11.376;2022-08-19T14:48:18;1.10;;;0.90;;
9447;SDS011;4762;48.128;11.376;2022-08-19T14:50:21;1.00;;;0.63;;
9447;SDS011;4762;48.128;11.376;2022-08-19T14:52:23;2.33;;;1.10;;
9447;SDS011;4762;48.128;11.376;2022-08-19T14:54:26;2.27;;;1.40;;
9447;SDS011;4762;48.128;11.376;2022-08-19T14:56:29;1.63;;;1.13;;
9447;SDS011;4762;48.128;11.376;2022-08-19T14:58:31;1.00;;;0.73;;
9447;SDS011;4762;48.128;11.376;2022-08-19T15:00:34;1.93;;;1.37;;
9447;SDS011;4762;48.128;11.376;2022-08-19T15:02:36;1.43;;;1.20;;
9447;SDS011;4762;48.128;11.376;2022-08-19T15:04:39;2.17;;;0.90;;
9447;SDS011;4762;48.128;11.376;2022-08-19T15:06:41;2.60;;;1.20;;
9447;SDS011;4762;48.128;11.376;2022-08-19T15:08:44;1.30;;;0.90;;
9447;SDS011;4762;48.128;11.376;2022-08-19T15:10:47;1.70;;;1.13;;
9447;SDS011;4762;48.128;11.376;2022-08-19T15:12:49;4.70;;;0.67;;
9447;SDS011;4762;48.128;11.376;2022-08-19T15:14:52;1.40;;;0.80;;
9447;SDS011;4762;48.128;11.376;2022-08-19T15:16:54;1.60;;;1.27;;
9447;SDS011;4762;48.128;11.376;2022-08-19T15:18:57;1.30;;;0.93;;
9447;SDS011;4762;48.128;11.376;2022-08-19T15:20:59;1.43;;;1.17;;
9447;SDS011;4762;48.128;11.376;2022-08-19T15:23:02;1.37;;;1.23;;
9447;SDS011;4762;48.128;11.376;2022-08-19T15:25:05;2.60;;;1.40;;
9447;SDS011;4762;48.128;11.376;2022-08-19T15:27:07;1.37;;;1.10;;
9447;SDS011;4762;48.128;11.376;2022-08-19T15:29:09;1.20;;;1.00;;
9447;SDS011;4762;48.128;11.376;2022-08-19T15:31:13;2.53;;;1.67;;
9447;SDS011;4762;48.128;11.376;2022-08-19T15:33:15;1.57;;;1.40;;
9447;SDS011;4762;48.128;11.376;2022-08-19T15:35:18;1.70;;;1.57;;
9447;SDS011;4762;48.128;11.376;2022-08-19T15:37:20;2.27;;;1.60;;
9447;SDS011;4762;48.128;11.376;2022-08-19T15:39:23;2.23;;;2.03;;
9447;SDS011;4762;48.128;11.376;2022-08-19T15:41:27;2.50;;;2.00;;
9447;SDS011;4762;48.128;11.376;2022-08-19T15:43:29;2.30;;;1.57;;
9447;SDS011;4762;48.128;11.376;2022-08-19T15:45:31;1.90;;;1.77;;